Hauptseite
METAR-TAF:

METAR-TAF

Flughäfen :

Campbeltown Airport

Campbeltown, Schottland

Breite: 55-26-14N, Länge: 005-41-11W, Höhe: 13 m

Beobachtung

Neuester Wetterbericht von vor 2 Stunden und 46 Minuten, um 16:50 UTC
Wind 12 kt aus West
Temperatur 12°C
Luftfeuchtigkeit 71%
Luftdruck 1017 hPa
Sichtweite 10 km oder mehr
keine Wolken unter 1500 m und keine Kumulonimbus oder Gewitterwolken

METAR: EGEC 221650Z 28012KT CAVOK 12/07 Q1017

Zeit: 20:36 (19:36 UTC)

Prognose

Neuester Wetterbericht von vor 5 Stunden und 39 Minuten, um 13:57 UTC
Gültige Prognose vom 22 um 15 UTC bis 22 um 17 UTC
Wind 12 kt aus West/Nordwest
Sichtweite 10 km oder mehr
Leicht bewölkt in der Höhe von 3500 ft

TAF: EGEC 221357Z 2215/2217 29012KT 9999 FEW035

Wetterbeobachtungen und Prognosen von mehr als 4000 Flughäfen (METAR und TAF Bericht).

Die verfügbaren Stationen werden durch gelbe und rote Markierungen auf der Karte dargestellt.

Führen Sie die Maus auf sie, um den Namen der Station zu sehen.

Darauf klicken, um die Beobachtung von Wetterbeobachtungen und Prognosen zu sehen.

Um die Karte zu ändern : klicken Sie auf den grünen Tasten mit einem schwarzen Kreuz Zum Vergrößern, auf den grünen Button mit einem Gedankenstrich zu verkleinern, oder auf die grünen Pfeile für benachbarte Karten.


METAR-TAF: